Time;durP1;ratioP1;P1;durP2;ratioP2;P2;SDS_P1;SDS_P2;PMS_P1;PMS_P2;Temp;Humidity;BMP_temperature;BMP_pressure;BME280_temperature;BME280_humidity;BME280_pressure;Samples;Min_cycle;Max_cycle;Signal;HPM_P1;HPM_P2
2023/04/07 00:01:02;;;;;;;29.23;20.37;;;7.40;99.90;;;;;;6145423;23;20207;-71
2023/04/07 00:03:27;;;;;;;27.70;18.93;;;7.40;99.90;;;;;;6097944;23;20225;-71
2023/04/07 00:05:53;;;;;;;24.90;18.87;;;7.40;99.90;;;;;;6113346;23;20148;-70
2023/04/07 00:08:19;;;;;;;22.80;17.33;;;7.40;99.90;;;;;;6147297;23;20136;-69
2023/04/07 00:10:44;;;;;;;32.50;21.03;;;7.40;99.90;;;;;;6146741;23;20461;-68
2023/04/07 00:13:10;;;;;;;27.37;19.20;;;7.40;99.90;;;;;;6139970;23;20192;-69
2023/04/07 00:15:35;;;;;;;23.20;18.07;;;7.40;99.90;;;;;;6146765;23;20136;-72
2023/04/07 00:18:02;;;;;;;27.03;20.43;;;7.40;99.90;;;;;;6115128;23;20178;-70
2023/04/07 00:20:28;;;;;;;29.90;21.90;;;7.40;99.90;;;;;;6148639;23;20375;-71
2023/04/07 00:22:54;;;;;;;27.07;18.50;;;7.40;99.90;;;;;;6112128;23;20463;-69
2023/04/07 00:25:20;;;;;;;23.37;16.80;;;7.40;99.90;;;;;;6125900;23;20430;-69
2023/04/07 00:27:47;;;;;;;27.57;19.93;;;7.30;99.90;;;;;;6111718;23;20151;-69
2023/04/07 00:30:14;;;;;;;28.27;19.10;;;7.40;99.90;;;;;;6122104;23;20405;-69
2023/04/07 00:32:40;;;;;;;31.00;19.70;;;7.30;99.90;;;;;;6113265;23;20414;-70
2023/04/07 00:35:06;;;;;;;24.83;16.67;;;7.40;99.90;;;;;;6092657;23;20395;-70
2023/04/07 00:37:31;;;;;;;21.50;13.20;;;7.40;99.90;;;;;;6140197;23;20136;-70
2023/04/07 00:39:58;;;;;;;15.70;10.90;;;7.40;99.90;;;;;;6139896;23;20502;-70
2023/04/07 00:42:23;;;;;;;12.80;9.90;;;7.40;99.90;;;;;;6109519;23;20615;-71
2023/04/07 00:44:49;;;;;;;18.40;12.63;;;7.50;99.90;;;;;;6111847;23;20459;-69
2023/04/07 00:47:15;;;;;;;27.53;16.90;;;7.50;99.90;;;;;;6108065;23;20151;-70
2023/04/07 00:49:41;;;;;;;25.50;17.20;;;7.50;99.90;;;;;;6155130;23;20139;-70
2023/04/07 00:52:10;;;;;;;19.87;13.20;;;7.50;99.90;;;;;;6106047;23;20997;-70
2023/04/07 00:54:36;;;;;;;22.87;13.80;;;7.50;99.90;;;;;;6079919;23;20157;-71
2023/04/07 00:57:03;;;;;;;21.90;12.20;;;7.50;99.90;;;;;;6034396;23;20436;-70
2023/04/07 00:59:31;;;;;;;19.80;11.63;;;7.50;99.90;;;;;;6080753;23;20416;-69
2023/04/07 01:02:15;;;;;;;13.90;9.93;;;7.60;99.90;;;;;;6080010;23;20256;-67
2023/04/07 01:04:54;;;;;;;20.47;14.03;;;7.60;99.90;;;;;;6115172;23;20356;-70
2023/04/07 01:07:27;;;;;;;18.30;11.10;;;7.60;99.90;;;;;;6083910;23;20388;-69
2023/04/07 01:10:05;;;;;;;37.70;20.73;;;7.60;99.90;;;;;;6082305;23;20476;-70
2023/04/07 01:13:03;;;;;;;31.00;18.20;;;7.60;99.90;;;;;;6082528;23;20439;-69
2023/04/07 01:15:30;;;;;;;35.90;20.90;;;7.60;99.90;;;;;;6106624;23;20383;-68
2023/04/07 01:18:09;;;;;;;31.77;18.67;;;7.60;99.90;;;;;;6080269;23;20400;-71
2023/04/07 01:20:36;;;;;;;24.87;13.63;;;7.60;99.90;;;;;;6115255;23;20374;-68
2023/04/07 01:23:05;;;;;;;19.50;11.63;;;7.60;99.90;;;;;;6081838;23;20408;-71
2023/04/07 01:25:35;;;;;;;15.00;9.93;;;7.70;99.90;;;;;;6107965;23;20406;-71
2023/04/07 01:28:04;;;;;;;19.07;9.60;;;7.70;99.90;;;;;;6140384;23;20396;-70
2023/04/07 01:30:33;;;;;;;24.83;14.30;;;7.70;99.90;;;;;;6104159;23;20792;-71
2023/04/07 01:33:00;;;;;;;21.60;12.53;;;7.70;99.90;;;;;;6138297;23;20407;-70
2023/04/07 01:35:30;;;;;;;15.13;10.20;;;7.70;99.90;;;;;;6140495;23;20372;-69
2023/04/07 01:37:56;;;;;;;12.20;8.40;;;7.70;99.90;;;;;;6140548;23;20395;-74
2023/04/07 01:40:23;;;;;;;16.30;9.13;;;7.70;99.90;;;;;;6104242;23;20471;-70
2023/04/07 01:42:51;;;;;;;16.97;9.20;;;7.70;99.90;;;;;;6103054;23;20422;-69
2023/04/07 01:45:19;;;;;;;18.37;12.00;;;7.80;99.90;;;;;;6139640;23;20372;-69
2023/04/07 01:47:45;;;;;;;22.63;11.33;;;7.80;99.90;;;;;;6104174;23;20403;-70
2023/04/07 01:50:12;;;;;;;17.73;10.27;;;7.80;99.90;;;;;;6104183;23;20412;-69
2023/04/07 01:52:39;;;;;;;17.37;8.47;;;7.80;99.90;;;;;;6139073;23;20407;-71
2023/04/07 01:55:05;;;;;;;13.43;7.67;;;7.80;99.90;;;;;;6103445;23;20402;-69
2023/04/07 01:57:35;;;;;;;12.40;7.97;;;7.80;99.90;;;;;;6102724;23;20392;-70
2023/04/07 02:00:08;;;;;;;16.17;10.63;;;7.90;99.90;;;;;;6103643;23;20752;-68
2023/04/07 02:02:50;;;;;;;15.20;8.70;;;7.90;99.90;;;;;;6102658;23;20403;-69
2023/04/07 02:05:19;;;;;;;15.27;9.70;;;7.90;99.90;;;;;;6140148;23;20673;-69
2023/04/07 02:08:01;;;;;;;36.93;21.10;;;7.90;99.90;;;;;;6083327;23;20380;-70
2023/04/07 02:10:28;;;;;;;32.13;18.67;;;7.90;99.90;;;;;;6106343;23;20649;-69
2023/04/07 02:12:59;;;;;;;34.10;18.43;;;7.90;99.90;;;;;;6103218;23;20911;-69
2023/04/07 02:15:26;;;;;;;32.03;16.77;;;7.90;99.90;;;;;;6103522;23;20372;-69
2023/04/07 02:17:55;;;;;;;25.87;15.70;;;7.90;99.90;;;;;;6104626;23;20693;-70
2023/04/07 02:20:21;;;;;;;32.07;17.77;;;7.90;99.90;;;;;;6105531;23;20482;-69
2023/04/07 02:22:47;;;;;;;38.93;22.03;;;7.90;99.90;;;;;;6140264;23;20403;-68
2023/04/07 02:25:27;;;;;;;34.73;20.17;;;7.90;99.90;;;;;;6138970;23;20423;-68
2023/04/07 02:27:54;;;;;;;39.37;22.20;;;7.90;99.90;;;;;;6103623;23;20148;-69
2023/04/07 02:30:20;;;;;;;55.97;25.30;;;7.90;99.90;;;;;;6144658;23;20371;-73
2023/04/07 02:32:46;;;;;;;61.90;29.33;;;8.00;99.90;;;;;;6142586;23;20434;-69
2023/04/07 02:35:14;;;;;;;92.87;37.53;;;8.00;99.90;;;;;;6138963;23;20394;-69
2023/04/07 02:37:39;;;;;;;76.23;31.30;;;8.00;99.90;;;;;;6138878;23;20375;-70
2023/04/07 02:40:06;;;;;;;82.20;33.77;;;7.90;99.90;;;;;;6138773;23;20827;-69
2023/04/07 02:42:31;;;;;;;90.97;36.17;;;8.00;99.90;;;;;;6136752;23;20542;-69
2023/04/07 02:44:57;;;;;;;91.97;34.90;;;8.00;99.90;;;;;;6139096;23;20372;-70
2023/04/07 02:47:23;;;;;;;100.57;36.70;;;8.00;99.90;;;;;;6103318;23;20216;-70
2023/04/07 02:49:49;;;;;;;91.83;35.20;;;8.00;99.90;;;;;;6138946;23;20167;-70
2023/04/07 02:52:14;;;;;;;84.67;31.80;;;8.00;99.90;;;;;;6138807;23;20797;-69
2023/04/07 02:54:40;;;;;;;119.70;38.47;;;8.00;99.90;;;;;;6138666;23;20457;-69
2023/04/07 02:57:09;;;;;;;87.47;33.63;;;8.00;99.90;;;;;;6103484;23;20188;-69
2023/04/07 02:59:34;;;;;;;109.57;38.97;;;8.10;99.90;;;;;;6103076;23;20419;-68
2023/04/07 03:02:01;;;;;;;87.20;34.03;;;8.00;99.90;;;;;;6103282;23;20702;-69
2023/04/07 03:04:27;;;;;;;88.73;34.33;;;8.00;99.90;;;;;;6102260;23;20387;-70
2023/04/07 03:06:53;;;;;;;96.73;34.80;;;8.00;99.90;;;;;;6103043;23;20387;-69
2023/04/07 03:09:19;;;;;;;94.80;33.60;;;8.00;99.90;;;;;;6103377;23;20431;-67
2023/04/07 03:11:45;;;;;;;104.53;38.03;;;8.00;99.90;;;;;;6103108;23;20404;-70
2023/04/07 03:14:10;;;;;;;100.83;35.80;;;8.00;99.90;;;;;;6129291;23;20385;-69
2023/04/07 03:16:55;;;;;;;149.03;39.37;;;8.00;99.90;;;;;;6139013;23;20376;-69
2023/04/07 03:19:21;;;;;;;100.63;35.20;;;8.00;99.90;;;;;;6102734;23;20424;-69
2023/04/07 03:21:48;;;;;;;98.03;33.50;;;8.00;99.90;;;;;;6102959;23;20503;-70
2023/04/07 03:24:14;;;;;;;135.27;39.70;;;8.00;99.90;;;;;;6138276;23;20375;-68
2023/04/07 03:26:40;;;;;;;113.57;34.27;;;8.00;99.90;;;;;;6105059;23;20593;-68
2023/04/07 03:29:14;;;;;;;99.80;33.27;;;8.00;99.90;;;;;;6102826;23;20155;-69
2023/04/07 03:31:41;;;;;;;116.40;35.33;;;8.00;99.90;;;;;;6102651;23;20470;-68
2023/04/07 03:34:07;;;;;;;165.77;40.90;;;8.00;99.90;;;;;;6103216;23;20495;-69
2023/04/07 03:36:33;;;;;;;113.30;33.83;;;8.00;99.90;;;;;;6103250;23;20390;-69
2023/04/07 03:39:02;;;;;;;117.60;34.70;;;8.00;99.90;;;;;;6103296;23;20258;-70
2023/04/07 03:41:28;;;;;;;114.67;39.07;;;8.00;99.90;;;;;;6102572;23;20407;-69
2023/04/07 03:43:53;;;;;;;89.57;31.90;;;8.00;99.90;;;;;;6102368;23;20159;-69
2023/04/07 03:46:23;;;;;;;106.90;35.40;;;8.00;99.90;;;;;;6103822;23;20229;-69
2023/04/07 03:48:49;;;;;;;111.90;36.00;;;8.00;99.90;;;;;;6102723;23;20148;-69
2023/04/07 03:51:15;;;;;;;85.57;30.50;;;8.00;99.90;;;;;;6102647;23;20383;-68
2023/04/07 03:53:40;;;;;;;109.73;37.50;;;8.00;99.90;;;;;;6103157;23;20819;-69
2023/04/07 03:56:26;;;;;;;116.57;37.87;;;8.00;99.90;;;;;;6102518;23;20415;-69
2023/04/07 03:58:52;;;;;;;95.50;33.17;;;7.90;99.90;;;;;;6103201;23;20427;-70
2023/04/07 04:01:25;;;;;;;100.33;34.50;;;7.90;99.90;;;;;;6103389;23;20172;-68
2023/04/07 04:03:52;;;;;;;82.87;30.47;;;7.90;99.90;;;;;;6103588;23;20482;-70
2023/04/07 04:06:26;;;;;;;107.70;35.90;;;7.90;99.90;;;;;;6103796;23;20451;-70
2023/04/07 04:08:56;;;;;;;85.70;31.20;;;7.80;99.90;;;;;;6110390;23;20447;-70
2023/04/07 04:11:23;;;;;;;116.97;38.10;;;7.90;99.90;;;;;;6103249;23;20421;-69
2023/04/07 04:13:57;;;;;;;73.10;25.97;;;7.80;99.90;;;;;;6102795;23;20412;-69
2023/04/07 04:16:22;;;;;;;73.37;28.00;;;7.80;99.90;;;;;;6138621;23;20853;-70
2023/04/07 04:18:50;;;;;;;88.97;29.77;;;7.80;99.90;;;;;;6103106;23;20245;-70
2023/04/07 04:21:16;;;;;;;66.17;26.57;;;7.80;99.90;;;;;;6103233;23;20380;-71
2023/04/07 04:23:43;;;;;;;71.53;26.17;;;7.80;99.90;;;;;;6103287;23;20891;-71
2023/04/07 04:26:08;;;;;;;91.40;33.07;;;7.80;99.90;;;;;;6138739;23;20372;-70
2023/04/07 04:28:35;;;;;;;83.10;29.20;;;7.80;99.90;;;;;;6103257;23;20140;-69
2023/04/07 04:31:03;;;;;;;85.73;29.53;;;7.70;99.90;;;;;;6103491;23;20752;-69
2023/04/07 04:33:32;;;;;;;76.83;27.50;;;7.70;99.90;;;;;;6108231;23;20811;-69
2023/04/07 04:35:58;;;;;;;81.70;27.03;;;7.70;99.90;;;;;;6129786;23;20372;-70
2023/04/07 04:38:25;;;;;;;97.70;33.37;;;7.80;99.90;;;;;;6104021;23;20424;-70
2023/04/07 04:41:02;;;;;;;103.30;33.20;;;7.70;99.90;;;;;;6107747;23;20383;-70
2023/04/07 04:43:29;;;;;;;81.30;29.20;;;7.70;99.90;;;;;;6109509;23;20462;-70
2023/04/07 04:45:55;;;;;;;68.97;28.07;;;7.70;99.90;;;;;;6108985;23;20384;-71
2023/04/07 04:48:24;;;;;;;75.87;28.70;;;7.70;99.90;;;;;;6144642;23;20137;-70
2023/04/07 04:50:49;;;;;;;97.47;30.37;;;7.70;99.90;;;;;;6080824;23;20380;-70
2023/04/07 04:53:15;;;;;;;86.10;27.60;;;7.70;99.90;;;;;;6103084;23;20167;-69
2023/04/07 04:55:50;;;;;;;105.77;31.40;;;7.70;99.90;;;;;;6103432;23;20144;-71
2023/04/07 04:58:20;;;;;;;71.17;27.63;;;7.70;99.90;;;;;;6103035;23;20420;-71
2023/04/07 05:00:48;;;;;;;89.80;30.70;;;7.60;99.90;;;;;;6104525;23;20439;-69
2023/04/07 05:03:14;;;;;;;82.83;28.57;;;7.60;99.90;;;;;;6105224;23;20404;-69
2023/04/07 05:05:47;;;;;;;100.03;29.60;;;7.60;99.90;;;;;;6105606;23;20215;-70
2023/04/07 05:08:12;;;;;;;78.63;28.27;;;7.60;99.90;;;;;;6105439;23;20479;-70
2023/04/07 05:10:39;;;;;;;75.27;26.90;;;7.60;99.90;;;;;;6106890;23;20619;-70
2023/04/07 05:13:08;;;;;;;87.53;27.83;;;7.60;99.90;;;;;;6083282;23;20439;-70
2023/04/07 05:15:35;;;;;;;103.77;34.10;;;7.60;99.90;;;;;;6110207;23;20384;-70
2023/04/07 05:18:01;;;;;;;76.50;28.50;;;7.60;99.90;;;;;;6107893;23;20391;-69
2023/04/07 05:20:27;;;;;;;81.73;27.23;;;7.50;99.90;;;;;;6109102;23;20427;-71
2023/04/07 05:22:54;;;;;;;64.93;23.10;;;7.50;99.90;;;;;;6108894;23;20467;-69
2023/04/07 05:25:24;;;;;;;77.40;24.90;;;7.50;99.90;;;;;;6109058;23;20456;-69
2023/04/07 05:27:53;;;;;;;68.23;24.30;;;7.50;99.90;;;;;;6108273;23;20378;-69
2023/04/07 05:30:19;;;;;;;61.77;22.40;;;7.50;99.90;;;;;;6111817;23;20400;-69
2023/04/07 05:32:45;;;;;;;55.33;21.63;;;7.50;99.90;;;;;;6136206;23;20247;-71
2023/04/07 05:35:21;;;;;;;51.07;19.00;;;7.40;99.90;;;;;;6111888;23;20383;-70
2023/04/07 05:37:52;;;;;;;50.93;20.93;;;7.40;99.90;;;;;;6065396;23;20380;-70
2023/04/07 05:40:18;;;;;;;43.57;17.30;;;7.40;99.90;;;;;;6146118;23;20455;-69
2023/04/07 05:42:43;;;;;;;48.37;18.73;;;7.50;99.90;;;;;;6084215;23;20171;-71
2023/04/07 05:45:10;;;;;;;43.93;17.67;;;7.50;99.90;;;;;;6085218;23;20387;-69
2023/04/07 05:47:40;;;;;;;49.47;17.97;;;7.50;99.90;;;;;;6109435;23;20383;-70
2023/04/07 05:50:08;;;;;;;50.57;20.20;;;7.50;99.90;;;;;;6084250;23;20388;-69
2023/04/07 05:52:35;;;;;;;41.53;17.93;;;7.40;99.90;;;;;;6084801;23;20415;-70
2023/04/07 05:55:10;;;;;;;54.30;19.97;;;7.40;99.90;;;;;;6107272;23;20387;-70
2023/04/07 05:57:36;;;;;;;57.10;19.50;;;7.40;99.90;;;;;;6108010;23;20399;-69
2023/04/07 06:00:03;;;;;;;42.00;15.90;;;7.50;99.90;;;;;;6107225;23;20415;-69
2023/04/07 06:02:40;;;;;;;56.67;22.07;;;7.50;99.90;;;;;;6133576;23;20396;-69
2023/04/07 06:05:08;;;;;;;65.60;20.87;;;7.50;99.90;;;;;;6108110;23;20646;-69
2023/04/07 06:07:35;;;;;;;47.57;18.50;;;7.50;99.90;;;;;;6107185;23;20395;-71
2023/04/07 06:10:01;;;;;;;42.90;17.03;;;7.40;99.90;;;;;;6114369;23;20398;-70
2023/04/07 06:12:26;;;;;;;40.83;15.50;;;7.50;99.90;;;;;;6142112;23;20266;-71
2023/04/07 06:14:54;;;;;;;49.57;16.87;;;7.50;99.90;;;;;;6145083;23;20144;-70
2023/04/07 06:17:21;;;;;;;50.80;19.13;;;7.50;99.90;;;;;;6108522;23;20520;-72
2023/04/07 06:19:47;;;;;;;53.97;17.70;;;7.50;99.90;;;;;;6144742;23;20486;-71
2023/04/07 06:22:12;;;;;;;45.90;15.70;;;7.50;99.90;;;;;;6108439;23;20403;-71
2023/04/07 06:24:38;;;;;;;41.67;15.70;;;7.50;99.90;;;;;;6145541;23;20211;-69
2023/04/07 06:27:05;;;;;;;59.00;19.27;;;7.50;99.90;;;;;;6143585;23;20164;-70
2023/04/07 06:29:34;;;;;;;47.47;15.67;;;7.50;99.90;;;;;;6144313;23;20184;-71
2023/04/07 06:32:03;;;;;;;39.07;15.40;;;7.50;99.90;;;;;;6085973;23;20431;-69
2023/04/07 06:34:28;;;;;;;37.30;12.93;;;7.50;99.90;;;;;;6117696;23;20823;-69
2023/04/07 06:36:54;;;;;;;34.77;13.27;;;7.50;99.90;;;;;;6083499;23;20450;-71
2023/04/07 06:39:20;;;;;;;30.30;13.43;;;7.50;99.90;;;;;;6086513;23;20203;-70
2023/04/07 06:41:46;;;;;;;35.17;13.63;;;7.50;99.90;;;;;;6145008;23;20494;-69
2023/04/07 06:44:11;;;;;;;34.50;13.47;;;7.50;99.90;;;;;;6109668;23;20144;-70
2023/04/07 06:46:38;;;;;;;41.03;14.00;;;7.50;99.90;;;;;;6146019;23;20203;-70
2023/04/07 06:49:03;;;;;;;24.80;10.77;;;7.50;99.90;;;;;;6147223;23;20140;-70
2023/04/07 06:51:30;;;;;;;31.10;12.03;;;7.50;99.90;;;;;;6145236;23;20406;-70
2023/04/07 06:53:56;;;;;;;29.40;11.10;;;7.50;99.90;;;;;;6145606;23;20364;-73
2023/04/07 06:56:22;;;;;;;28.97;9.97;;;7.50;99.90;;;;;;6086475;23;20383;-70
2023/04/07 06:58:48;;;;;;;39.13;13.40;;;7.50;99.90;;;;;;6119618;23;20215;-70
2023/04/07 07:01:14;;;;;;;26.80;10.10;;;7.50;99.90;;;;;;6144231;23;20372;-71
2023/04/07 07:03:40;;;;;;;24.90;10.53;;;7.50;99.90;;;;;;6146671;23;20140;-71
2023/04/07 07:06:06;;;;;;;30.60;11.03;;;7.60;99.90;;;;;;6145363;23;20812;-70
2023/04/07 07:08:32;;;;;;;22.20;9.20;;;7.60;99.90;;;;;;6138150;23;20175;-70
2023/04/07 07:10:57;;;;;;;30.70;11.73;;;7.70;99.90;;;;;;6145979;23;20380;-70
2023/04/07 07:13:25;;;;;;;32.30;10.90;;;7.70;99.90;;;;;;6085961;23;20234;-72
2023/04/07 07:15:51;;;;;;;17.30;7.57;;;7.70;99.90;;;;;;6146951;23;20148;-73
2023/04/07 07:18:18;;;;;;;27.97;10.20;;;7.70;99.90;;;;;;6064577;23;20447;-70
2023/04/07 07:20:44;;;;;;;30.37;11.67;;;7.70;99.90;;;;;;6118568;23;20375;-71
2023/04/07 07:23:09;;;;;;;21.37;8.13;;;7.70;99.90;;;;;;6087027;23;20407;-70
2023/04/07 07:25:35;;;;;;;27.03;11.43;;;7.70;99.90;;;;;;6118644;23;20379;-71
2023/04/07 07:28:01;;;;;;;26.90;9.53;;;7.70;99.90;;;;;;6145270;23;20147;-69
2023/04/07 07:30:26;;;;;;;20.53;9.17;;;7.80;99.90;;;;;;6118485;23;20132;-70
2023/04/07 07:32:52;;;;;;;38.47;12.87;;;7.70;99.90;;;;;;6146271;23;20216;-71
2023/04/07 07:35:20;;;;;;;15.90;7.60;;;7.80;99.90;;;;;;6109176;23;20148;-72
2023/04/07 07:37:46;;;;;;;33.23;12.00;;;7.70;99.90;;;;;;6088324;23;20434;-72
2023/04/07 07:40:13;;;;;;;29.27;10.50;;;7.70;99.90;;;;;;6120027;23;20400;-71
2023/04/07 07:42:38;;;;;;;32.73;11.73;;;7.70;99.90;;;;;;6088741;23;20408;-71
2023/04/07 07:45:05;;;;;;;23.80;9.20;;;7.80;99.90;;;;;;6086506;23;20395;-69
2023/04/07 07:47:31;;;;;;;34.17;12.13;;;7.80;99.90;;;;;;6086565;23;20140;-70
2023/04/07 07:49:56;;;;;;;26.50;10.20;;;7.80;99.90;;;;;;6109109;23;20899;-70
2023/04/07 07:52:22;;;;;;;35.80;12.30;;;7.90;99.90;;;;;;6109489;23;20439;-70
2023/04/07 07:54:48;;;;;;;25.80;10.30;;;8.00;99.90;;;;;;6145244;23;20186;-71
2023/04/07 07:57:14;;;;;;;31.77;11.97;;;8.10;99.90;;;;;;6119937;23;20140;-70
2023/04/07 07:59:40;;;;;;;25.57;11.50;;;8.20;99.90;;;;;;6146401;23;20442;-70
2023/04/07 08:02:06;;;;;;;40.53;12.50;;;8.20;99.90;;;;;;6089131;23;20411;-72
2023/04/07 08:04:32;;;;;;;19.03;9.23;;;8.20;99.90;;;;;;6143392;23;20132;-70
2023/04/07 08:06:58;;;;;;;32.07;13.13;;;8.20;99.90;;;;;;6110937;23;20468;-73
2023/04/07 08:09:23;;;;;;;22.47;10.60;;;8.20;99.90;;;;;;6058051;23;20390;-70
2023/04/07 08:11:50;;;;;;;20.90;10.30;;;8.20;99.90;;;;;;6032511;23;20221;-70
2023/04/07 08:14:16;;;;;;;33.33;13.50;;;8.20;99.90;;;;;;6032960;23;20154;-69
2023/04/07 08:16:42;;;;;;;28.03;11.30;;;8.20;99.90;;;;;;6056381;23;20465;-70
2023/04/07 08:19:07;;;;;;;23.17;10.20;;;8.20;99.90;;;;;;6055725;23;20418;-71
2023/04/07 08:21:33;;;;;;;27.30;12.17;;;8.20;99.90;;;;;;6058208;23;20505;-71
2023/04/07 08:23:59;;;;;;;30.10;12.67;;;8.20;99.90;;;;;;6021979;23;20564;-71
2023/04/07 08:26:25;;;;;;;26.53;13.20;;;8.20;99.90;;;;;;6055418;23;20138;-72
2023/04/07 08:28:52;;;;;;;28.20;12.37;;;8.20;99.90;;;;;;6057163;23;20438;-71
2023/04/07 08:31:19;;;;;;;38.30;13.00;;;8.30;99.90;;;;;;6059327;23;20233;-73
2023/04/07 08:33:45;;;;;;;22.23;10.93;;;8.20;99.90;;;;;;5999983;23;20402;-70
2023/04/07 08:36:11;;;;;;;19.93;9.87;;;8.30;99.90;;;;;;6001214;23;20780;-70
2023/04/07 08:38:37;;;;;;;23.43;9.83;;;8.40;99.90;;;;;;6061393;23;20190;-72
2023/04/07 08:41:09;;;;;;;23.13;10.77;;;8.30;99.90;;;;;;6072488;23;20390;-73
2023/04/07 08:43:36;;;;;;;27.73;11.53;;;8.20;99.90;;;;;;6110917;23;20163;-72
2023/04/07 08:46:02;;;;;;;23.37;11.07;;;8.20;99.90;;;;;;6092306;23;20376;-71
2023/04/07 08:48:33;;;;;;;30.70;12.40;;;8.20;99.90;;;;;;6130483;23;20410;-74
2023/04/07 08:51:05;;;;;;;21.03;11.40;;;8.20;99.90;;;;;;6113735;23;20390;-71
2023/04/07 08:53:51;;;;;;;31.20;11.77;;;8.30;99.90;;;;;;6113295;23;20456;-71
2023/04/07 08:56:17;;;;;;;23.43;10.33;;;8.30;99.90;;;;;;6088977;23;20411;-71
2023/04/07 08:58:44;;;;;;;31.97;11.83;;;8.40;99.90;;;;;;6088516;23;20419;-72
2023/04/07 09:01:10;;;;;;;22.60;10.67;;;8.40;99.90;;;;;;6090643;23;20383;-73
2023/04/07 09:03:37;;;;;;;25.13;10.10;;;8.40;99.90;;;;;;6090762;23;20383;-73
2023/04/07 09:06:03;;;;;;;30.63;11.43;;;8.40;99.90;;;;;;6115586;23;20645;-74
2023/04/07 09:08:29;;;;;;;16.97;10.30;;;8.50;99.90;;;;;;6092293;23;20387;-72
2023/04/07 09:10:58;;;;;;;20.93;10.30;;;8.50;99.90;;;;;;6115497;23;20384;-73
2023/04/07 09:13:24;;;;;;;19.37;10.93;;;8.60;99.90;;;;;;6089461;23;20195;-74
2023/04/07 09:15:50;;;;;;;20.67;12.27;;;8.70;99.90;;;;;;6091127;23;20380;-72
2023/04/07 09:18:16;;;;;;;21.07;9.63;;;8.60;99.90;;;;;;6112472;23;20394;-70
2023/04/07 09:21:00;;;;;;;16.47;8.57;;;8.70;99.90;;;;;;6113671;23;20372;-69
2023/04/07 09:23:39;;;;;;;15.17;8.27;;;8.80;99.90;;;;;;6151569;23;20380;-72
2023/04/07 09:26:24;;;;;;;15.33;8.93;;;8.80;99.90;;;;;;6126669;23;20422;-71
2023/04/07 09:28:57;;;;;;;12.80;7.33;;;8.80;99.90;;;;;;6092136;23;20452;-72
2023/04/07 09:31:26;;;;;;;17.23;9.40;;;8.80;99.90;;;;;;6153252;23;20677;-71
2023/04/07 09:33:52;;;;;;;15.83;8.43;;;8.90;99.90;;;;;;6092057;23;20379;-72
2023/04/07 09:36:18;;;;;;;11.17;6.77;;;8.80;99.90;;;;;;6119603;23;20388;-70
2023/04/07 09:38:44;;;;;;;15.33;8.67;;;8.90;99.90;;;;;;6118140;23;20155;-72
2023/04/07 09:41:15;;;;;;;13.93;8.60;;;8.90;99.90;;;;;;6094646;23;20410;-70
2023/04/07 09:43:45;;;;;;;17.17;9.13;;;9.00;99.90;;;;;;6121377;23;20395;-71
2023/04/07 09:46:19;;;;;;;11.87;8.60;;;8.90;99.90;;;;;;6094938;23;20390;-71
2023/04/07 09:48:46;;;;;;;16.80;9.53;;;9.00;99.90;;;;;;6115661;23;20383;-71
2023/04/07 09:51:13;;;;;;;13.57;8.10;;;8.90;99.90;;;;;;6069266;23;20448;-72
2023/04/07 09:53:46;;;;;;;12.40;8.13;;;8.90;99.90;;;;;;6070318;23;20391;-72
2023/04/07 09:56:15;;;;;;;11.60;7.07;;;9.00;99.90;;;;;;6092719;23;20390;-72
2023/04/07 09:58:42;;;;;;;9.57;7.50;;;9.20;99.90;;;;;;6115310;23;20412;-72
2023/04/07 10:01:09;;;;;;;9.37;7.90;;;9.50;99.90;;;;;;6112843;23;20391;-72
2023/04/07 10:03:36;;;;;;;12.17;9.50;;;9.80;99.90;;;;;;6148418;23;20375;-71
2023/04/07 10:06:02;;;;;;;14.20;8.70;;;10.00;99.90;;;;;;6090839;23;20448;-72
2023/04/07 10:08:31;;;;;;;9.83;7.70;;;10.10;99.90;;;;;;6123739;23;20454;-71
2023/04/07 10:11:00;;;;;;;11.83;7.70;;;10.30;99.90;;;;;;6124214;23;20372;-72
2023/04/07 10:13:27;;;;;;;11.10;8.03;;;10.30;99.90;;;;;;6143114;23;20737;-74
2023/04/07 10:15:54;;;;;;;11.90;8.60;;;10.30;99.90;;;;;;6125119;23;20820;-70
2023/04/07 10:18:21;;;;;;;13.10;10.10;;;10.20;99.90;;;;;;6117341;23;20384;-73
2023/04/07 10:20:49;;;;;;;14.10;9.83;;;10.00;99.90;;;;;;6116009;23;20790;-74
2023/04/07 10:23:21;;;;;;;11.77;9.63;;;9.90;99.90;;;;;;6094181;23;20411;-72
2023/04/07 10:25:49;;;;;;;19.90;10.27;;;9.90;99.90;;;;;;6153744;23;20371;-73
2023/04/07 10:28:16;;;;;;;13.50;10.00;;;10.00;99.90;;;;;;6094713;23;20443;-72
2023/04/07 10:30:44;;;;;;;16.40;10.80;;;10.10;99.90;;;;;;6093914;23;20380;-71
2023/04/07 10:33:09;;;;;;;18.53;11.60;;;10.20;99.90;;;;;;6116616;23;20442;-73
2023/04/07 10:36:04;;;;;;;16.00;9.97;;;10.10;99.90;;;;;;6117994;23;20391;-70
2023/04/07 10:38:30;;;;;;;15.87;12.10;;;10.20;99.90;;;;;;6091683;23;20182;-70
2023/04/07 10:40:56;;;;;;;20.03;13.20;;;10.20;99.90;;;;;;6092524;23;20387;-74
2023/04/07 10:43:42;;;;;;;15.17;11.90;;;10.30;99.90;;;;;;6116147;23;20884;-74
2023/04/07 10:46:08;;;;;;;17.87;13.23;;;10.30;99.90;;;;;;6089184;23;20467;-70
2023/04/07 10:48:34;;;;;;;16.80;10.97;;;10.40;99.90;;;;;;6124334;23;20376;-72
2023/04/07 10:51:11;;;;;;;12.67;10.17;;;10.40;99.90;;;;;;6117898;23;20148;-71
2023/04/07 10:53:37;;;;;;;17.37;12.90;;;10.50;99.90;;;;;;6127440;23;20659;-70
2023/04/07 10:56:03;;;;;;;20.63;10.83;;;10.50;99.90;;;;;;6125683;23;20404;-72
2023/04/07 10:58:32;;;;;;;14.77;9.97;;;10.40;99.90;;;;;;6094894;23;20183;-71
2023/04/07 11:01:13;;;;;;;13.77;10.27;;;10.40;99.90;;;;;;6113863;23;20800;-70
2023/04/07 11:03:41;;;;;;;13.57;9.30;;;10.10;99.90;;;;;;6113948;23;20446;-70
2023/04/07 11:06:13;;;;;;;13.30;8.73;;;9.90;99.90;;;;;;6088856;23;20384;-70
2023/04/07 11:08:41;;;;;;;12.07;9.00;;;9.80;99.90;;;;;;6089189;23;20518;-72
2023/04/07 11:11:08;;;;;;;19.30;11.53;;;9.70;99.90;;;;;;6113598;23;20812;-71
2023/04/07 11:13:41;;;;;;;16.00;11.43;;;9.80;99.90;;;;;;6115690;23;20435;-72
2023/04/07 11:16:08;;;;;;;19.40;9.40;;;9.80;99.90;;;;;;6115621;23;20426;-74
2023/04/07 11:18:38;;;;;;;20.07;11.73;;;9.80;99.90;;;;;;6141589;23;20447;-71
2023/04/07 11:21:05;;;;;;;14.93;9.47;;;10.00;99.90;;;;;;6090581;23;20384;-71
2023/04/07 11:23:43;;;;;;;15.40;11.70;;;10.20;99.90;;;;;;6089978;23;20382;-71
2023/04/07 11:26:10;;;;;;;17.20;11.30;;;10.40;99.90;;;;;;6117880;23;20386;-72
2023/04/07 11:28:45;;;;;;;16.40;10.87;;;10.60;99.90;;;;;;6090643;23;20415;-72
2023/04/07 11:31:11;;;;;;;13.63;10.13;;;10.80;99.90;;;;;;6114203;23;20379;-70
2023/04/07 11:33:40;;;;;;;15.17;11.30;;;11.00;99.90;;;;;;6146865;23;20463;-71
2023/04/07 11:36:06;;;;;;;18.00;13.03;;;11.20;99.90;;;;;;6112900;23;20152;-71
2023/04/07 11:38:37;;;;;;;14.83;11.07;;;11.20;99.90;;;;;;6086806;23;20422;-70
2023/04/07 11:41:14;;;;;;;20.43;13.27;;;11.10;99.90;;;;;;6122510;23;20364;-71
2023/04/07 11:43:43;;;;;;;22.17;11.47;;;11.00;99.90;;;;;;6141722;23;20812;-71
2023/04/07 11:46:18;;;;;;;15.50;10.97;;;11.00;99.90;;;;;;6123480;23;20634;-72
2023/04/07 11:48:46;;;;;;;12.00;8.97;;;11.10;99.90;;;;;;6123315;23;20676;-69
2023/04/07 11:51:21;;;;;;;13.20;9.40;;;11.10;99.90;;;;;;6115770;23;20390;-71
2023/04/07 11:53:53;;;;;;;12.17;8.53;;;11.40;99.90;;;;;;6125931;23;20676;-72
2023/04/07 11:56:18;;;;;;;16.03;11.30;;;11.60;99.90;;;;;;6150360;23;20368;-72
2023/04/07 11:58:52;;;;;;;15.87;10.50;;;11.70;99.90;;;;;;6151178;23;20415;-72
2023/04/07 12:01:19;;;;;;;17.50;9.37;;;11.60;99.90;;;;;;6090028;23;20188;-71
2023/04/07 12:03:57;;;;;;;13.40;9.20;;;11.60;99.90;;;;;;6092145;23;20423;-72
2023/04/07 12:06:41;;;;;;;13.20;9.70;;;11.70;99.90;;;;;;6150499;23;20815;-70
2023/04/07 12:09:24;;;;;;;13.90;9.47;;;11.60;99.90;;;;;;6151026;23;20471;-73
2023/04/07 12:11:49;;;;;;;14.30;9.53;;;11.70;99.90;;;;;;6090548;23;20498;-72
2023/04/07 12:14:15;;;;;;;11.30;9.07;;;11.60;99.90;;;;;;6113290;23;20384;-71
2023/04/07 12:16:41;;;;;;;10.90;9.37;;;11.60;99.90;;;;;;6151631;23;20493;-72
2023/04/07 12:19:07;;;;;;;10.10;8.27;;;11.50;99.90;;;;;;6140779;23;20177;-71
2023/04/07 12:21:33;;;;;;;12.60;9.20;;;11.50;99.90;;;;;;6090743;23;20422;-71
2023/04/07 12:23:58;;;;;;;11.10;9.03;;;11.60;99.90;;;;;;6152300;23;20136;-71
2023/04/07 12:26:24;;;;;;;13.03;9.77;;;11.50;99.90;;;;;;6116136;23;20215;-70
2023/04/07 12:28:50;;;;;;;12.20;8.60;;;11.50;99.90;;;;;;6125904;23;20140;-71
2023/04/07 12:31:16;;;;;;;14.17;9.10;;;11.60;99.90;;;;;;6116559;23;20159;-71
2023/04/07 12:33:42;;;;;;;11.70;8.23;;;11.60;99.90;;;;;;6151714;23;20363;-70
2023/04/07 12:36:07;;;;;;;14.70;10.57;;;11.70;99.90;;;;;;6116474;23;20935;-72
2023/04/07 12:38:33;;;;;;;14.20;9.70;;;11.70;99.90;;;;;;6093268;23;20441;-72
2023/04/07 12:41:02;;;;;;;16.47;11.10;;;11.70;99.90;;;;;;6120651;23;20411;-74